Time,TemperatureF,DewpointF,PressureIn,WindDirection,WindDirectionDegrees,WindSpeedMPH,WindSpeedGustMPH,Humidity,HourlyPrecipIn,Conditions,Clouds,dailyrainin,SoftwareType,DateUTC
2013-12-10 00:22:00,40.0,40.0,30.30,NNE,17,9.0,14.0,100,0.00,,,0.05,,2013-12-10 06:22:00,
2013-12-10 00:42:00,39.0,39.0,30.32,NNE,16,9.0,16.0,100,0.00,,,0.05,,2013-12-10 06:42:00,
2013-12-10 00:52:00,39.0,39.0,30.32,NNE,16,9.0,16.0,100,0.00,,,0.05,,2013-12-10 06:52:00,
2013-12-10 01:02:00,39.0,39.0,30.32,NNE,16,9.0,16.0,100,0.00,,,0.05,,2013-12-10 07:02:00,
2013-12-10 01:22:00,39.0,39.0,30.32,NNE,18,7.0,12.0,100,0.00,,,0.05,,2013-12-10 07:22:00,
2013-12-10 01:42:00,39.0,39.0,30.33,NNE,16,5.0,14.0,100,0.00,,,0.05,,2013-12-10 07:42:00,
2013-12-10 01:52:00,39.0,39.0,30.33,NNE,16,5.0,14.0,100,0.00,,,0.05,,2013-12-10 07:52:00,
2013-12-10 02:22:00,39.0,39.0,30.34,NNE,14,9.0,16.0,100,0.00,,,0.05,,2013-12-10 08:22:00,
2013-12-10 02:52:00,39.0,39.0,30.37,NNE,19,10.0,18.0,99,0.00,,,0.05,,2013-12-10 08:52:00,
2013-12-10 03:02:00,39.0,39.0,30.37,NNE,19,10.0,18.0,99,0.00,,,0.05,,2013-12-10 09:02:00,
2013-12-10 03:11:00,39.0,39.0,30.37,NNE,19,10.0,18.0,99,0.00,,,0.05,,2013-12-10 09:11:00,
2013-12-10 03:21:00,39.0,39.0,30.37,NNE,19,10.0,18.0,99,0.00,,,0.05,,2013-12-10 09:21:00,
2013-12-10 03:44:00,39.0,39.0,30.36,NNE,18,6.0,15.0,99,0.00,,,0.05,,2013-12-10 09:44:00,
2013-12-10 03:54:00,39.0,39.0,30.36,NNE,18,6.0,15.0,99,0.00,,,0.05,,2013-12-10 09:54:00,
2013-12-10 04:12:00,39.0,39.0,30.37,North,11,7.0,12.0,99,0.00,,,0.05,,2013-12-10 10:12:00,
2013-12-10 04:22:00,39.0,39.0,30.37,North,11,7.0,12.0,99,0.00,,,0.05,,2013-12-10 10:22:00,
2013-12-10 04:42:00,39.0,39.0,30.38,NNE,17,6.0,14.0,99,0.00,,,0.05,,2013-12-10 10:42:00,
2013-12-10 04:53:00,39.0,39.0,30.38,NNE,17,6.0,14.0,99,0.00,,,0.05,,2013-12-10 10:53:00,
2013-12-10 05:12:00,38.0,38.0,30.40,North,5,9.0,15.0,99,0.00,,,0.05,,2013-12-10 11:12:00,
2013-12-10 05:22:00,38.0,38.0,30.40,North,5,9.0,15.0,99,0.00,,,0.05,,2013-12-10 11:22:00,
2013-12-10 05:53:00,38.0,37.0,30.43,NNE,17,9.0,21.0,98,0.00,,,0.05,,2013-12-10 11:53:00,
2013-12-10 06:00:00,38.0,37.0,30.44,NNE,18,9.0,18.0,98,0.00,,,0.05,,2013-12-10 12:00:00,
2013-12-10 06:02:00,38.0,37.0,30.43,NNE,17,9.0,21.0,98,0.00,,,0.05,,2013-12-10 12:02:00,
2013-12-10 06:22:00,38.0,37.0,30.44,NNE,18,9.0,18.0,98,0.00,,,0.05,,2013-12-10 12:22:00,
2013-12-10 06:32:00,38.0,37.0,30.44,NNE,18,9.0,18.0,98,0.00,,,0.05,,2013-12-10 12:32:00,
2013-12-10 06:42:00,38.0,37.0,30.44,NNE,18,9.0,18.0,98,0.00,,,0.05,,2013-12-10 12:42:00,
2013-12-10 06:52:00,38.0,37.0,30.44,NNE,18,9.0,18.0,98,0.00,,,0.05,,2013-12-10 12:52:00,
2013-12-10 07:10:00,37.0,36.0,30.47,NNE,18,10.0,24.0,98,0.00,,,0.05,,2013-12-10 13:10:00,
2013-12-10 07:42:00,37.0,36.0,30.47,NNE,18,10.0,24.0,98,0.00,,,0.05,,2013-12-10 13:42:00,
2013-12-10 07:52:00,37.0,36.0,30.47,NNE,18,10.0,24.0,98,0.00,,,0.05,,2013-12-10 13:52:00,
2013-12-10 08:01:00,37.0,36.0,30.47,NNE,18,10.0,24.0,98,0.00,,,0.05,,2013-12-10 14:01:00,
2013-12-10 08:42:00,37.0,36.0,30.51,NNE,18,8.0,20.0,95,0.00,,,0.05,,2013-12-10 14:42:00,
2013-12-10 08:52:00,37.0,36.0,30.51,NNE,18,8.0,20.0,95,0.00,,,0.05,,2013-12-10 14:52:00,
2013-12-10 09:22:00,38.0,37.0,30.52,NNE,17,5.0,17.0,95,0.00,,,0.05,,2013-12-10 15:22:00,
2013-12-10 09:53:00,38.0,36.0,30.52,NE,38,9.0,18.0,92,0.00,,,0.05,,2013-12-10 15:53:00,
2013-12-10 10:04:00,38.0,36.0,30.52,NE,38,9.0,18.0,92,0.00,,,0.05,,2013-12-10 16:04:00,
2013-12-10 10:12:00,38.0,36.0,30.52,NE,38,9.0,18.0,92,0.00,,,0.05,,2013-12-10 16:12:00,
2013-12-10 10:23:00,38.0,36.0,30.52,NE,38,9.0,18.0,92,0.00,,,0.05,,2013-12-10 16:23:00,
2013-12-10 10:52:00,41.0,37.0,30.50,NNE,24,10.0,15.0,87,0.00,,,0.05,,2013-12-10 16:52:00,
2013-12-10 11:22:00,43.0,39.0,30.48,NNE,26,7.0,16.0,85,0.00,,,0.05,,2013-12-10 17:22:00,
2013-12-10 11:33:00,43.0,39.0,30.48,NNE,26,7.0,16.0,85,0.00,,,0.05,,2013-12-10 17:33:00,
2013-12-10 11:52:00,44.0,39.0,30.46,NNE,19,9.0,16.0,81,0.00,,,0.05,,2013-12-10 17:52:00,
2013-12-10 12:11:00,46.0,40.0,30.45,WSW,243,6.0,14.0,80,0.00,,,0.05,,2013-12-10 18:11:00,
2013-12-10 12:22:00,46.0,40.0,30.45,WSW,243,6.0,14.0,80,0.00,,,0.05,,2013-12-10 18:22:00,
2013-12-10 12:42:00,47.0,41.0,30.43,NNE,25,4.0,15.0,79,0.00,,,0.05,,2013-12-10 18:42:00,
2013-12-10 12:52:00,47.0,41.0,30.43,NNE,25,4.0,15.0,79,0.00,,,0.05,,2013-12-10 18:52:00,
2013-12-10 13:02:00,47.0,41.0,30.43,NNE,25,4.0,15.0,79,0.00,,,0.05,,2013-12-10 19:02:00,
2013-12-10 13:22:00,47.0,40.0,30.40,NE,41,5.0,16.0,76,0.00,,,0.05,,2013-12-10 19:22:00,
2013-12-10 13:52:00,48.0,39.0,30.38,NNE,32,7.0,16.0,72,0.00,,,0.05,,2013-12-10 19:52:00,
2013-12-10 14:02:00,48.0,39.0,30.38,NNE,32,7.0,16.0,72,0.00,,,0.05,,2013-12-10 20:02:00,
2013-12-10 14:22:00,49.0,40.0,30.37,NE,36,7.0,14.0,72,0.00,,,0.05,,2013-12-10 20:22:00,
2013-12-10 14:52:00,50.0,41.0,30.37,NNE,19,6.0,16.0,70,0.00,,,0.05,,2013-12-10 20:52:00,
2013-12-10 15:12:00,49.0,40.0,30.37,NE,34,6.0,14.0,70,0.00,,,0.05,,2013-12-10 21:12:00,
2013-12-10 15:22:00,49.0,40.0,30.37,NE,34,6.0,14.0,70,0.00,,,0.05,,2013-12-10 21:22:00,
2013-12-10 15:43:00,49.0,40.0,30.36,North,355,5.0,14.0,70,0.00,,,0.05,,2013-12-10 21:43:00,
2013-12-10 15:54:00,49.0,40.0,30.36,North,355,5.0,14.0,70,0.00,,,0.05,,2013-12-10 21:54:00,
2013-12-10 16:23:00,47.0,39.0,30.38,NNE,29,6.0,12.0,73,0.00,,,0.05,,2013-12-10 22:23:00,
2013-12-10 16:52:00,47.0,40.0,30.39,NNE,25,8.0,15.0,76,0.00,,,0.05,,2013-12-10 22:52:00,
2013-12-10 17:22:00,45.0,39.0,30.40,NNE,28,3.0,12.0,79,0.00,,,0.05,,2013-12-10 23:22:00,
2013-12-10 17:33:00,45.0,39.0,30.40,NNE,28,3.0,12.0,79,0.00,,,0.05,,2013-12-10 23:33:00,
2013-12-10 17:42:00,45.0,39.0,30.40,NNE,28,3.0,12.0,79,0.00,,,0.05,,2013-12-10 23:42:00,
2013-12-10 17:53:00,45.0,39.0,30.40,NNE,28,3.0,12.0,79,0.00,,,0.05,,2013-12-10 23:53:00,
2013-12-10 18:12:00,42.0,38.0,30.43,North,10,0.0,2.0,85,0.00,,,0.05,,2013-12-11 00:12:00,
2013-12-10 18:22:00,42.0,38.0,30.43,North,10,0.0,2.0,85,0.00,,,0.05,,2013-12-11 00:22:00,
2013-12-10 18:42:00,41.0,37.0,30.44,North,10,0.0,0.0,87,0.00,,,0.05,,2013-12-11 00:42:00,
2013-12-10 18:52:00,41.0,37.0,30.44,North,10,0.0,0.0,87,0.00,,,0.05,,2013-12-11 00:52:00,
2013-12-10 19:11:00,40.0,37.0,30.45,North,10,0.0,0.0,90,0.00,,,0.05,,2013-12-11 01:11:00,
2013-12-10 19:22:00,40.0,37.0,30.45,North,10,0.0,0.0,90,0.00,,,0.05,,2013-12-11 01:22:00,
2013-12-10 19:42:00,39.0,37.0,30.46,North,10,0.0,0.0,92,0.00,,,0.04,,2013-12-11 01:42:00,
2013-12-10 19:52:00,39.0,37.0,30.46,North,10,0.0,0.0,92,0.00,,,0.04,,2013-12-11 01:52:00,
2013-12-10 20:22:00,38.0,36.0,30.46,North,10,0.0,0.0,94,0.00,,,0.03,,2013-12-11 02:22:00,
2013-12-10 20:52:00,37.0,36.0,30.47,North,10,0.0,0.0,96,0.00,,,0.03,,2013-12-11 02:52:00,
2013-12-10 21:22:00,37.0,36.0,30.47,North,10,0.0,0.0,96,0.00,,,0.03,,2013-12-11 03:22:00,
2013-12-10 21:54:00,37.0,36.0,30.48,North,10,0.0,0.0,96,0.00,,,0.03,,2013-12-11 03:54:00,
2013-12-10 22:23:00,37.0,36.0,30.49,ENE,69,0.0,0.0,96,0.00,,,0.03,,2013-12-11 04:23:00,
2013-12-10 22:52:00,36.0,35.0,30.50,ENE,69,0.0,0.0,97,0.00,,,0.02,,2013-12-11 04:52:00,
2013-12-10 23:03:00,36.0,35.0,30.50,ENE,69,0.0,0.0,97,0.00,,,0.02,,2013-12-11 05:03:00,
2013-12-10 23:12:00,36.0,35.0,30.50,ENE,69,0.0,0.0,97,0.00,,,0.02,,2013-12-11 05:12:00,
2013-12-10 23:22:00,36.0,35.0,30.50,ENE,69,0.0,0.0,97,0.00,,,0.02,,2013-12-11 05:22:00,
2013-12-10 23:43:00,36.0,35.0,30.48,ENE,69,0.0,0.0,97,0.00,,,0.00,,2013-12-11 05:43:00,
2013-12-10 23:53:00,36.0,35.0,30.48,ENE,69,0.0,0.0,97,0.00,,,0.00,,2013-12-11 05:53:00,